sensor_id;sensor_type;location;lat;lon;timestamp;pressure;altitude;pressure_sealevel;temperature;humidity
4167;BME280;2097;51.104;7.150;2022-11-20T00:00:53;98330.78;;;2.15;99.12
4167;BME280;2097;51.104;7.150;2022-11-20T00:03:20;98417.06;;;2.63;99.34
4167;BME280;2097;51.104;7.150;2022-11-20T00:05:49;98387.00;;;2.44;99.45
4167;BME280;2097;51.104;7.150;2022-11-20T00:08:16;98412.75;;;2.65;99.71
4167;BME280;2097;51.104;7.150;2022-11-20T00:10:42;98415.34;;;2.64;99.73
4167;BME280;2097;51.104;7.150;2022-11-20T00:13:09;98406.81;;;2.63;99.64
4167;BME280;2097;51.104;7.150;2022-11-20T00:15:36;98405.88;;;2.66;99.88
4167;BME280;2097;51.104;7.150;2022-11-20T00:18:03;98407.56;;;2.67;99.58
4167;BME280;2097;51.104;7.150;2022-11-20T00:20:30;98393.06;;;2.66;99.64
4167;BME280;2097;51.104;7.150;2022-11-20T00:22:58;98396.59;;;2.63;99.64
4167;BME280;2097;51.104;7.150;2022-11-20T00:25:25;98400.84;;;2.63;99.74
4167;BME280;2097;51.104;7.150;2022-11-20T00:27:51;98400.16;;;2.58;99.78
4167;BME280;2097;51.104;7.150;2022-11-20T00:30:18;98395.09;;;2.56;99.68
4167;BME280;2097;51.104;7.150;2022-11-20T00:32:45;98401.84;;;2.59;99.95
4167;BME280;2097;51.104;7.150;2022-11-20T00:35:12;98395.84;;;2.60;99.82
4167;BME280;2097;51.104;7.150;2022-11-20T00:37:39;98402.69;;;2.59;99.32
4167;BME280;2097;51.104;7.150;2022-11-20T00:40:08;98400.22;;;2.56;99.80
4167;BME280;2097;51.104;7.150;2022-11-20T00:42:35;98407.72;;;2.62;99.56
4167;BME280;2097;51.104;7.150;2022-11-20T00:45:02;98402.44;;;2.67;99.77
4167;BME280;2097;51.104;7.150;2022-11-20T00:47:29;98397.22;;;2.70;99.79
4167;BME280;2097;51.104;7.150;2022-11-20T00:49:56;98398.88;;;2.71;99.45
4167;BME280;2097;51.104;7.150;2022-11-20T00:52:23;98393.88;;;2.68;99.31
4167;BME280;2097;51.104;7.150;2022-11-20T00:54:49;98393.88;;;2.68;99.35
4167;BME280;2097;51.104;7.150;2022-11-20T00:57:18;98404.09;;;2.68;99.57
4167;BME280;2097;51.104;7.150;2022-11-20T00:59:44;98400.84;;;2.63;99.65
4167;BME280;2097;51.104;7.150;2022-11-20T01:02:11;98402.63;;;2.61;99.74
4167;BME280;2097;51.104;7.150;2022-11-20T01:04:38;98399.28;;;2.59;99.50
4167;BME280;2097;51.104;7.150;2022-11-20T01:07:05;98400.06;;;2.61;99.59
4167;BME280;2097;51.104;7.150;2022-11-20T01:09:32;98405.84;;;2.67;99.75
4167;BME280;2097;51.104;7.150;2022-11-20T01:11:58;98389.59;;;2.68;99.45
4167;BME280;2097;51.104;7.150;2022-11-20T01:14:27;98389.63;;;2.67;99.53
4167;BME280;2097;51.104;7.150;2022-11-20T01:16:53;98395.53;;;2.69;99.40
4167;BME280;2097;51.104;7.150;2022-11-20T01:19:22;98392.97;;;2.69;99.66
4167;BME280;2097;51.104;7.150;2022-11-20T01:21:51;98347.69;;;2.45;99.37
4167;BME280;2097;51.104;7.150;2022-11-20T01:24:19;98385.56;;;2.61;99.69
4167;BME280;2097;51.104;7.150;2022-11-20T01:26:48;98363.75;;;2.50;99.61
4167;BME280;2097;51.104;7.150;2022-11-20T01:29:17;98376.13;;;2.62;99.48
4167;BME280;2097;51.104;7.150;2022-11-20T01:31:46;98382.91;;;2.64;99.65
4167;BME280;2097;51.104;7.150;2022-11-20T01:34:15;98372.47;;;2.69;99.67
4167;BME280;2097;51.104;7.150;2022-11-20T01:36:43;98237.78;;;1.90;99.12
4167;BME280;2097;51.104;7.150;2022-11-20T01:39:12;98377.44;;;2.73;99.44
4167;BME280;2097;51.104;7.150;2022-11-20T01:41:39;98376.72;;;2.70;99.65
4167;BME280;2097;51.104;7.150;2022-11-20T01:47:28;98369.34;;;2.61;99.83
4167;BME280;2097;51.104;7.150;2022-11-20T01:49:59;98232.38;;;1.73;99.91
4167;BME280;2097;51.104;7.150;2022-11-20T01:52:33;98376.28;;;2.57;99.94
4167;BME280;2097;51.104;7.150;2022-11-20T01:55:04;98374.69;;;2.55;100.00
4167;BME280;2097;51.104;7.150;2022-11-20T01:57:34;98377.25;;;2.55;99.84
4167;BME280;2097;51.104;7.150;2022-11-20T02:00:05;98200.59;;;1.54;99.79
4167;BME280;2097;51.104;7.150;2022-11-20T02:02:35;98367.03;;;2.53;99.91
4167;BME280;2097;51.104;7.150;2022-11-20T02:05:14;98379.84;;;2.53;100.00
4167;BME280;2097;51.104;7.150;2022-11-20T02:07:43;98274.25;;;1.97;100.00
4167;BME280;2097;51.104;7.150;2022-11-20T02:10:11;98370.44;;;2.54;100.00
4167;BME280;2097;51.104;7.150;2022-11-20T02:12:38;98370.66;;;2.48;99.91
4167;BME280;2097;51.104;7.150;2022-11-20T02:15:22;98366.53;;;2.42;100.00
4167;BME280;2097;51.104;7.150;2022-11-20T02:17:50;98365.81;;;2.39;100.00
4167;BME280;2097;51.104;7.150;2022-11-20T02:20:17;98375.91;;;2.43;100.00
4167;BME280;2097;51.104;7.150;2022-11-20T02:22:48;98378.34;;;2.46;100.00
4167;BME280;2097;51.104;7.150;2022-11-20T02:25:21;98369.06;;;2.44;99.93
4167;BME280;2097;51.104;7.150;2022-11-20T02:27:48;98367.50;;;2.40;99.87
4167;BME280;2097;51.104;7.150;2022-11-20T02:30:15;98364.06;;;2.39;100.00
4167;BME280;2097;51.104;7.150;2022-11-20T02:32:42;98369.16;;;2.41;100.00
4167;BME280;2097;51.104;7.150;2022-11-20T02:35:38;98365.03;;;2.37;100.00
4167;BME280;2097;51.104;7.150;2022-11-20T02:37:59;98364.22;;;2.35;100.00
4167;BME280;2097;51.104;7.150;2022-11-20T02:40:29;98355.75;;;2.34;100.00
4167;BME280;2097;51.104;7.150;2022-11-20T02:42:56;98356.25;;;2.44;100.00
4167;BME280;2097;51.104;7.150;2022-11-20T02:45:24;98300.69;;;2.22;100.00
4167;BME280;2097;51.104;7.150;2022-11-20T02:47:51;98344.06;;;2.52;100.00
4167;BME280;2097;51.104;7.150;2022-11-20T02:50:18;98329.34;;;2.57;99.56
4167;BME280;2097;51.104;7.150;2022-11-20T02:52:45;98345.66;;;2.54;99.40
4167;BME280;2097;51.104;7.150;2022-11-20T02:55:12;98337.25;;;2.51;99.58
4167;BME280;2097;51.104;7.150;2022-11-20T02:57:40;98340.72;;;2.50;99.69
4167;BME280;2097;51.104;7.150;2022-11-20T03:00:08;98339.81;;;2.51;99.28
4167;BME280;2097;51.104;7.150;2022-11-20T03:02:35;98329.69;;;2.48;99.71
4167;BME280;2097;51.104;7.150;2022-11-20T03:05:01;98328.81;;;2.47;99.78
4167;BME280;2097;51.104;7.150;2022-11-20T03:07:28;98320.47;;;2.42;99.60
4167;BME280;2097;51.104;7.150;2022-11-20T03:09:55;98313.03;;;2.35;100.00
4167;BME280;2097;51.104;7.150;2022-11-20T03:12:22;98312.31;;;2.31;99.74
4167;BME280;2097;51.104;7.150;2022-11-20T03:14:50;98303.44;;;2.17;99.88
4167;BME280;2097;51.104;7.150;2022-11-20T03:17:17;98311.56;;;2.02;100.00
4167;BME280;2097;51.104;7.150;2022-11-20T03:19:44;98308.66;;;1.87;100.00
4167;BME280;2097;51.104;7.150;2022-11-20T03:22:10;98311.31;;;1.84;100.00
4167;BME280;2097;51.104;7.150;2022-11-20T03:24:37;98301.28;;;1.78;100.00
4167;BME280;2097;51.104;7.150;2022-11-20T03:27:04;98307.41;;;1.72;100.00
4167;BME280;2097;51.104;7.150;2022-11-20T03:29:31;98309.13;;;1.72;100.00
4167;BME280;2097;51.104;7.150;2022-11-20T03:31:59;98313.31;;;1.74;100.00
4167;BME280;2097;51.104;7.150;2022-11-20T03:34:26;98306.34;;;1.79;100.00
4167;BME280;2097;51.104;7.150;2022-11-20T03:36:53;98302.91;;;1.80;100.00
4167;BME280;2097;51.104;7.150;2022-11-20T03:39:19;98313.25;;;1.76;100.00
4167;BME280;2097;51.104;7.150;2022-11-20T03:41:46;98314.03;;;1.79;100.00
4167;BME280;2097;51.104;7.150;2022-11-20T03:44:13;98316.44;;;1.84;100.00
4167;BME280;2097;51.104;7.150;2022-11-20T03:46:40;98319.59;;;1.92;100.00
4167;BME280;2097;51.104;7.150;2022-11-20T03:49:08;98316.72;;;2.01;100.00
4167;BME280;2097;51.104;7.150;2022-11-20T03:51:35;98324.13;;;2.10;100.00
4167;BME280;2097;51.104;7.150;2022-11-20T03:54:04;98198.63;;;1.36;100.00
4167;BME280;2097;51.104;7.150;2022-11-20T03:56:33;98324.00;;;2.14;100.00
4167;BME280;2097;51.104;7.150;2022-11-20T03:59:01;98315.44;;;2.15;100.00
4167;BME280;2097;51.104;7.150;2022-11-20T04:01:30;98312.19;;;2.10;100.00
4167;BME280;2097;51.104;7.150;2022-11-20T04:03:57;98311.41;;;2.07;100.00
4167;BME280;2097;51.104;7.150;2022-11-20T04:06:27;98310.59;;;2.06;100.00
4167;BME280;2097;51.104;7.150;2022-11-20T04:08:54;98319.06;;;2.08;100.00
4167;BME280;2097;51.104;7.150;2022-11-20T04:11:23;98316.53;;;2.07;100.00
4167;BME280;2097;51.104;7.150;2022-11-20T04:13:52;98313.09;;;2.08;100.00
4167;BME280;2097;51.104;7.150;2022-11-20T04:16:20;98273.78;;;1.84;100.00
4167;BME280;2097;51.104;7.150;2022-11-20T04:18:50;98318.38;;;2.03;100.00
4167;BME280;2097;51.104;7.150;2022-11-20T04:21:17;98313.25;;;2.03;100.00
4167;BME280;2097;51.104;7.150;2022-11-20T04:23:46;98282.13;;;1.89;100.00
4167;BME280;2097;51.104;7.150;2022-11-20T04:26:12;98311.31;;;2.10;100.00
4167;BME280;2097;51.104;7.150;2022-11-20T04:28:39;98250.47;;;1.67;100.00
4167;BME280;2097;51.104;7.150;2022-11-20T04:31:07;98245.44;;;1.64;100.00
4167;BME280;2097;51.104;7.150;2022-11-20T04:33:35;98311.56;;;2.02;100.00
4167;BME280;2097;51.104;7.150;2022-11-20T04:36:04;98274.56;;;1.86;100.00
4167;BME280;2097;51.104;7.150;2022-11-20T04:38:31;98303.81;;;2.05;100.00
4167;BME280;2097;51.104;7.150;2022-11-20T04:41:00;98186.84;;;1.32;100.00
4167;BME280;2097;51.104;7.150;2022-11-20T04:43:27;98314.88;;;2.06;100.00
4167;BME280;2097;51.104;7.150;2022-11-20T04:45:55;98327.63;;;2.07;100.00
4167;BME280;2097;51.104;7.150;2022-11-20T04:48:23;98329.28;;;2.08;100.00
4167;BME280;2097;51.104;7.150;2022-11-20T04:50:50;98324.09;;;2.11;100.00
4167;BME280;2097;51.104;7.150;2022-11-20T04:53:18;98320.56;;;2.14;100.00
4167;BME280;2097;51.104;7.150;2022-11-20T04:55:45;98313.75;;;2.14;100.00
4167;BME280;2097;51.104;7.150;2022-11-20T04:58:13;98319.69;;;2.15;100.00
4167;BME280;2097;51.104;7.150;2022-11-20T05:00:41;98311.19;;;2.14;100.00
4167;BME280;2097;51.104;7.150;2022-11-20T05:03:08;98323.31;;;2.08;100.00
4167;BME280;2097;51.104;7.150;2022-11-20T05:05:35;98317.41;;;2.06;100.00
4167;BME280;2097;51.104;7.150;2022-11-20T05:08:02;98319.06;;;2.08;100.00
4167;BME280;2097;51.104;7.150;2022-11-20T05:10:29;98322.41;;;2.10;100.00
4167;BME280;2097;51.104;7.150;2022-11-20T05:12:56;98324.09;;;2.11;100.00
4167;BME280;2097;51.104;7.150;2022-11-20T05:15:25;98324.00;;;2.14;100.00
4167;BME280;2097;51.104;7.150;2022-11-20T05:17:52;98324.81;;;2.15;100.00
4167;BME280;2097;51.104;7.150;2022-11-20T05:20:19;98324.03;;;2.13;100.00
4167;BME280;2097;51.104;7.150;2022-11-20T05:22:46;98320.53;;;2.15;100.00
4167;BME280;2097;51.104;7.150;2022-11-20T05:25:13;98309.44;;;2.16;100.00
4167;BME280;2097;51.104;7.150;2022-11-20T05:27:40;98323.00;;;2.18;100.00
4167;BME280;2097;51.104;7.150;2022-11-20T05:30:08;98138.94;;;1.11;100.00
4167;BME280;2097;51.104;7.150;2022-11-20T05:32:36;98270.25;;;1.88;100.00
4167;BME280;2097;51.104;7.150;2022-11-20T05:35:03;98291.91;;;2.04;100.00
4167;BME280;2097;51.104;7.150;2022-11-20T05:37:30;98285.00;;;2.06;100.00
4167;BME280;2097;51.104;7.150;2022-11-20T05:40:00;98315.19;;;2.21;100.00
4167;BME280;2097;51.104;7.150;2022-11-20T05:42:30;98312.66;;;2.21;100.00
4167;BME280;2097;51.104;7.150;2022-11-20T05:44:57;98290.03;;;2.09;100.00
4167;BME280;2097;51.104;7.150;2022-11-20T05:47:24;98312.44;;;2.27;100.00
4167;BME280;2097;51.104;7.150;2022-11-20T05:49:52;98312.44;;;2.27;100.00
4167;BME280;2097;51.104;7.150;2022-11-20T05:52:19;98307.28;;;2.28;100.00
4167;BME280;2097;51.104;7.150;2022-11-20T05:54:46;98318.34;;;2.29;100.00
4167;BME280;2097;51.104;7.150;2022-11-20T05:57:13;98324.31;;;2.29;100.00
4167;BME280;2097;51.104;7.150;2022-11-20T05:59:40;98315.75;;;2.30;100.00
4167;BME280;2097;51.104;7.150;2022-11-20T06:02:07;98314.09;;;2.29;100.00
4167;BME280;2097;51.104;7.150;2022-11-20T06:04:33;98313.31;;;2.27;100.00
4167;BME280;2097;51.104;7.150;2022-11-20T06:07:02;98316.78;;;2.25;100.00
4167;BME280;2097;51.104;7.150;2022-11-20T06:09:29;98316.88;;;2.22;100.00
4167;BME280;2097;51.104;7.150;2022-11-20T06:11:56;98313.53;;;2.20;100.00
4167;BME280;2097;51.104;7.150;2022-11-20T06:14:22;98329.00;;;2.17;100.00
4167;BME280;2097;51.104;7.150;2022-11-20T06:16:49;98293.75;;;1.99;100.00
4167;BME280;2097;51.104;7.150;2022-11-20T06:19:16;98312.97;;;2.12;100.00
4167;BME280;2097;51.104;7.150;2022-11-20T06:21:43;98307.06;;;2.10;100.00
4167;BME280;2097;51.104;7.150;2022-11-20T06:24:11;98316.41;;;2.11;100.00
4167;BME280;2097;51.104;7.150;2022-11-20T06:26:38;98323.22;;;2.11;100.00
4167;BME280;2097;51.104;7.150;2022-11-20T06:29:05;98289.63;;;1.95;100.00
4167;BME280;2097;51.104;7.150;2022-11-20T06:31:32;98324.88;;;2.13;100.00
4167;BME280;2097;51.104;7.150;2022-11-20T06:34:03;98312.06;;;2.13;100.00
4167;BME280;2097;51.104;7.150;2022-11-20T06:36:29;98313.88;;;2.10;100.00
4167;BME280;2097;51.104;7.150;2022-11-20T06:38:56;98308.97;;;2.04;100.00
4167;BME280;2097;51.104;7.150;2022-11-20T06:41:24;98315.13;;;1.98;100.00
4167;BME280;2097;51.104;7.150;2022-11-20T06:43:51;98222.34;;;1.41;100.00
4167;BME280;2097;51.104;7.150;2022-11-20T06:46:19;98312.75;;;1.92;100.00
4167;BME280;2097;51.104;7.150;2022-11-20T06:48:47;98318.13;;;1.83;100.00
4167;BME280;2097;51.104;7.150;2022-11-20T06:51:14;98159.69;;;0.74;100.00
4167;BME280;2097;51.104;7.150;2022-11-20T06:53:41;98326.44;;;1.64;100.00
4167;BME280;2097;51.104;7.150;2022-11-20T06:56:08;98282.34;;;1.28;100.00
4167;BME280;2097;51.104;7.150;2022-11-20T06:58:36;98321.38;;;1.33;100.00
4167;BME280;2097;51.104;7.150;2022-11-20T07:01:05;98320.94;;;1.19;100.00
4167;BME280;2097;51.104;7.150;2022-11-20T07:03:33;98327.28;;;1.07;100.00
4167;BME280;2097;51.104;7.150;2022-11-20T07:06:00;98208.97;;;0.16;100.00
4167;BME280;2097;51.104;7.150;2022-11-20T07:08:27;98324.63;;;0.79;100.00
4167;BME280;2097;51.104;7.150;2022-11-20T07:10:57;98326.69;;;0.67;100.00
4167;BME280;2097;51.104;7.150;2022-11-20T07:13:24;98332.03;;;0.58;100.00
4167;BME280;2097;51.104;7.150;2022-11-20T07:15:52;98334.78;;;0.49;100.00
4167;BME280;2097;51.104;7.150;2022-11-20T07:18:19;98238.88;;;-0.23;100.00
4167;BME280;2097;51.104;7.150;2022-11-20T07:20:46;98204.66;;;-0.48;100.00
4167;BME280;2097;51.104;7.150;2022-11-20T07:23:13;98349.66;;;0.33;100.00
4167;BME280;2097;51.104;7.150;2022-11-20T07:25:39;98350.59;;;0.31;100.00
4167;BME280;2097;51.104;7.150;2022-11-20T07:28:06;98260.38;;;-0.35;100.00
4167;BME280;2097;51.104;7.150;2022-11-20T07:30:33;98349.63;;;0.35;100.00
4167;BME280;2097;51.104;7.150;2022-11-20T07:33:01;98344.34;;;0.41;100.00
4167;BME280;2097;51.104;7.150;2022-11-20T07:35:28;98340.84;;;0.45;100.00
4167;BME280;2097;51.104;7.150;2022-11-20T07:37:55;98343.31;;;0.48;100.00
4167;BME280;2097;51.104;7.150;2022-11-20T07:40:22;98338.22;;;0.48;100.00
4167;BME280;2097;51.104;7.150;2022-11-20T07:42:49;98340.78;;;0.48;100.00
4167;BME280;2097;51.104;7.150;2022-11-20T07:45:16;98342.38;;;0.52;100.00
4167;BME280;2097;51.104;7.150;2022-11-20T07:47:43;98348.28;;;0.54;100.00
4167;BME280;2097;51.104;7.150;2022-11-20T07:50:11;98337.25;;;0.53;100.00
4167;BME280;2097;51.104;7.150;2022-11-20T07:52:39;98343.25;;;0.51;100.00
4167;BME280;2097;51.104;7.150;2022-11-20T07:55:07;98337.34;;;0.49;100.00
4167;BME280;2097;51.104;7.150;2022-11-20T07:57:34;98337.34;;;0.49;100.00
4167;BME280;2097;51.104;7.150;2022-11-20T08:00:02;98340.69;;;0.51;100.00
4167;BME280;2097;51.104;7.150;2022-11-20T08:02:29;98330.41;;;0.54;100.00
4167;BME280;2097;51.104;7.150;2022-11-20T08:04:56;98207.25;;;-0.16;100.00
4167;BME280;2097;51.104;7.150;2022-11-20T08:07:24;98337.19;;;0.55;100.00
4167;BME280;2097;51.104;7.150;2022-11-20T08:09:51;98336.44;;;0.51;100.00
4167;BME280;2097;51.104;7.150;2022-11-20T08:12:19;98226.81;;;-0.17;100.00
4167;BME280;2097;51.104;7.150;2022-11-20T08:15:05;98341.56;;;0.51;100.00
4167;BME280;2097;51.104;7.150;2022-11-20T08:17:32;98237.69;;;-0.10;100.00
4167;BME280;2097;51.104;7.150;2022-11-20T08:19:59;98329.63;;;0.52;100.00
4167;BME280;2097;51.104;7.150;2022-11-20T08:22:27;98272.72;;;0.16;100.00
4167;BME280;2097;51.104;7.150;2022-11-20T08:24:54;98338.06;;;0.54;100.00
4167;BME280;2097;51.104;7.150;2022-11-20T08:27:21;98328.66;;;0.56;100.00
4167;BME280;2097;51.104;7.150;2022-11-20T08:29:47;98332.03;;;0.58;100.00
4167;BME280;2097;51.104;7.150;2022-11-20T08:32:14;98272.47;;;0.25;100.00
4167;BME280;2097;51.104;7.150;2022-11-20T08:34:41;98345.44;;;0.66;100.00
4167;BME280;2097;51.104;7.150;2022-11-20T08:37:08;98344.25;;;0.77;100.00
4167;BME280;2097;51.104;7.150;2022-11-20T08:39:36;98347.09;;;0.99;100.00
4167;BME280;2097;51.104;7.150;2022-11-20T08:42:06;98281.94;;;0.84;100.00
4167;BME280;2097;51.104;7.150;2022-11-20T08:44:33;98351.59;;;1.48;100.00
4167;BME280;2097;51.104;7.150;2022-11-20T08:47:00;98344.19;;;1.68;100.00
4167;BME280;2097;51.104;7.150;2022-11-20T08:49:35;97997.34;;;-0.44;100.00
4167;BME280;2097;51.104;7.150;2022-11-20T08:52:05;98335.75;;;1.92;100.00
4167;BME280;2097;51.104;7.150;2022-11-20T08:54:32;98346.78;;;2.20;100.00
4167;BME280;2097;51.104;7.150;2022-11-20T08:57:01;98336.88;;;2.37;100.00
4167;BME280;2097;51.104;7.150;2022-11-20T08:59:28;98341.41;;;2.55;100.00
4167;BME280;2097;51.104;7.150;2022-11-20T09:01:56;98340.75;;;2.73;100.00
4167;BME280;2097;51.104;7.150;2022-11-20T09:04:23;98343.47;;;2.93;100.00
4167;BME280;2097;51.104;7.150;2022-11-20T09:06:50;98341.16;;;3.10;100.00
4167;BME280;2097;51.104;7.150;2022-11-20T09:09:17;98344.19;;;3.21;100.00
4167;BME280;2097;51.104;7.150;2022-11-20T09:11:44;98336.38;;;3.24;100.00
4167;BME280;2097;51.104;7.150;2022-11-20T09:14:12;98342.16;;;3.29;100.00
4167;BME280;2097;51.104;7.150;2022-11-20T09:16:39;98353.66;;;3.41;100.00
4167;BME280;2097;51.104;7.150;2022-11-20T09:19:08;98345.78;;;3.46;100.00
4167;BME280;2097;51.104;7.150;2022-11-20T09:21:35;98350.16;;;3.44;100.00
4167;BME280;2097;51.104;7.150;2022-11-20T09:24:01;98346.84;;;3.40;100.00
4167;BME280;2097;51.104;7.150;2022-11-20T09:26:28;98348.75;;;3.35;100.00
4167;BME280;2097;51.104;7.150;2022-11-20T09:28:55;98341.94;;;3.34;100.00
4167;BME280;2097;51.104;7.150;2022-11-20T09:31:24;98343.63;;;3.35;100.00
4167;BME280;2097;51.104;7.150;2022-11-20T09:33:51;98343.50;;;3.38;100.00
4167;BME280;2097;51.104;7.150;2022-11-20T09:36:18;98275.25;;;3.13;100.00
4167;BME280;2097;51.104;7.150;2022-11-20T09:38:45;98333.03;;;3.44;100.00
4167;BME280;2097;51.104;7.150;2022-11-20T09:41:28;98328.13;;;3.38;100.00
4167;BME280;2097;51.104;7.150;2022-11-20T09:44:05;98326.44;;;3.37;100.00
4167;BME280;2097;51.104;7.150;2022-11-20T09:46:41;98196.06;;;2.61;100.00
4167;BME280;2097;51.104;7.150;2022-11-20T09:49:23;98318.72;;;3.39;100.00
4167;BME280;2097;51.104;7.150;2022-11-20T09:51:57;98320.59;;;3.34;100.00
4167;BME280;2097;51.104;7.150;2022-11-20T09:54:29;98322.78;;;3.44;100.00
4167;BME280;2097;51.104;7.150;2022-11-20T09:56:59;98326.69;;;3.54;100.00
4167;BME280;2097;51.104;7.150;2022-11-20T09:59:39;98317.78;;;3.63;100.00
4167;BME280;2097;51.104;7.150;2022-11-20T10:02:16;98202.19;;;3.03;100.00
4167;BME280;2097;51.104;7.150;2022-11-20T10:04:45;98333.91;;;3.88;100.00
4167;BME280;2097;51.104;7.150;2022-11-20T10:07:17;98322.09;;;4.05;100.00
4167;BME280;2097;51.104;7.150;2022-11-20T10:09:51;98330.88;;;4.21;100.00
4167;BME280;2097;51.104;7.150;2022-11-20T10:12:24;98321.59;;;4.39;100.00
4167;BME280;2097;51.104;7.150;2022-11-20T10:18:11;98310.03;;;4.48;100.00
4167;BME280;2097;51.104;7.150;2022-11-20T10:20:46;98212.63;;;4.04;100.00
4167;BME280;2097;51.104;7.150;2022-11-20T10:23:43;98304.97;;;4.67;100.00
4167;BME280;2097;51.104;7.150;2022-11-20T10:26:17;98296.84;;;4.76;100.00
4167;BME280;2097;51.104;7.150;2022-11-20T10:29:00;98300.53;;;4.90;100.00
4167;BME280;2097;51.104;7.150;2022-11-20T10:31:33;98294.41;;;4.93;100.00
4167;BME280;2097;51.104;7.150;2022-11-20T10:34:06;98312.41;;;4.93;99.24
4167;BME280;2097;51.104;7.150;2022-11-20T10:36:38;98225.84;;;4.55;99.56
4167;BME280;2097;51.104;7.150;2022-11-20T10:39:16;98279.97;;;4.90;100.00
4167;BME280;2097;51.104;7.150;2022-11-20T10:41:48;98215.06;;;4.47;99.61
4167;BME280;2097;51.104;7.150;2022-11-20T10:44:19;98296.47;;;4.85;99.30
4167;BME280;2097;51.104;7.150;2022-11-20T10:47:12;98289.34;;;4.71;99.07
4167;BME280;2097;51.104;7.150;2022-11-20T10:49:42;98285.81;;;4.54;99.66
4167;BME280;2097;51.104;7.150;2022-11-20T10:52:13;98281.19;;;4.42;99.70
4167;BME280;2097;51.104;7.150;2022-11-20T10:54:47;98273.47;;;4.42;100.00
4167;BME280;2097;51.104;7.150;2022-11-20T10:57:23;98269.72;;;4.50;100.00
4167;BME280;2097;51.104;7.150;2022-11-20T11:00:03;98265.91;;;4.59;99.42
4167;BME280;2097;51.104;7.150;2022-11-20T11:02:37;98272.25;;;4.70;99.30
4167;BME280;2097;51.104;7.150;2022-11-20T11:05:17;98176.03;;;4.19;98.70
4167;BME280;2097;51.104;7.150;2022-11-20T11:07:45;98194.19;;;4.35;98.44
4167;BME280;2097;51.104;7.150;2022-11-20T11:10:16;98210.50;;;4.34;98.62
4167;BME280;2097;51.104;7.150;2022-11-20T11:12:45;98255.66;;;4.59;98.16
4167;BME280;2097;51.104;7.150;2022-11-20T11:15:14;98249.88;;;4.54;98.97
4167;BME280;2097;51.104;7.150;2022-11-20T11:17:50;98239.34;;;4.60;98.76
4167;BME280;2097;51.104;7.150;2022-11-20T11:20:22;98144.94;;;4.07;98.00
4167;BME280;2097;51.104;7.150;2022-11-20T11:22:51;98237.28;;;4.68;98.49
4167;BME280;2097;51.104;7.150;2022-11-20T11:25:21;98226.09;;;4.69;98.09
4167;BME280;2097;51.104;7.150;2022-11-20T11:27:49;98096.56;;;3.98;97.70
4167;BME280;2097;51.104;7.150;2022-11-20T11:30:18;98212.66;;;4.62;98.11
4167;BME280;2097;51.104;7.150;2022-11-20T11:32:45;98118.28;;;4.09;97.84
4167;BME280;2097;51.104;7.150;2022-11-20T11:35:22;98113.41;;;4.03;98.49
4167;BME280;2097;51.104;7.150;2022-11-20T11:38:02;98150.25;;;4.22;98.35
4167;BME280;2097;51.104;7.150;2022-11-20T11:40:31;98200.03;;;4.58;98.46
4167;BME280;2097;51.104;7.150;2022-11-20T11:43:02;98197.38;;;4.59;98.11
4167;BME280;2097;51.104;7.150;2022-11-20T11:45:31;98195.78;;;4.57;98.13
4167;BME280;2097;51.104;7.150;2022-11-20T11:47:58;98174.72;;;4.49;98.07
4167;BME280;2097;51.104;7.150;2022-11-20T11:50:29;98049.53;;;3.77;98.28
4167;BME280;2097;51.104;7.150;2022-11-20T11:53:09;98191.16;;;4.65;97.49
4167;BME280;2097;51.104;7.150;2022-11-20T11:55:43;98184.78;;;4.73;98.38
4167;BME280;2097;51.104;7.150;2022-11-20T11:58:19;98179.50;;;4.76;98.04
4167;BME280;2097;51.104;7.150;2022-11-20T12:00:53;98172.97;;;4.88;97.76
4167;BME280;2097;51.104;7.150;2022-11-20T12:03:27;98165.34;;;5.05;97.65
4167;BME280;2097;51.104;7.150;2022-11-20T12:05:58;98051.56;;;4.46;96.39
4167;BME280;2097;51.104;7.150;2022-11-20T12:08:29;98161.69;;;5.27;96.24
4167;BME280;2097;51.104;7.150;2022-11-20T12:11:02;98165.72;;;5.33;96.79
4167;BME280;2097;51.104;7.150;2022-11-20T12:13:42;98162.09;;;5.37;96.37
4167;BME280;2097;51.104;7.150;2022-11-20T12:16:12;98151.59;;;5.41;96.90
4167;BME280;2097;51.104;7.150;2022-11-20T12:18:40;98151.59;;;5.41;95.65
4167;BME280;2097;51.104;7.150;2022-11-20T12:21:18;98153.34;;;5.41;96.62
4167;BME280;2097;51.104;7.150;2022-11-20T12:24:00;98150.00;;;5.39;96.31
4167;BME280;2097;51.104;7.150;2022-11-20T12:26:43;98061.69;;;4.86;96.08
4167;BME280;2097;51.104;7.150;2022-11-20T12:29:18;98072.59;;;4.91;96.31
4167;BME280;2097;51.104;7.150;2022-11-20T12:32:06;98113.84;;;5.06;96.16
4167;BME280;2097;51.104;7.150;2022-11-20T12:34:51;98138.47;;;5.29;97.35
4167;BME280;2097;51.104;7.150;2022-11-20T12:37:30;98103.50;;;5.08;97.48
4167;BME280;2097;51.104;7.150;2022-11-20T12:40:16;98134.88;;;5.14;97.37
4167;BME280;2097;51.104;7.150;2022-11-20T12:42:58;98135.78;;;5.13;97.50
4167;BME280;2097;51.104;7.150;2022-11-20T12:46:08;98032.19;;;4.57;96.84
4167;BME280;2097;51.104;7.150;2022-11-20T12:48:56;98076.06;;;4.90;97.31
4167;BME280;2097;51.104;7.150;2022-11-20T12:54:41;98136.81;;;5.28;96.89
4167;BME280;2097;51.104;7.150;2022-11-20T12:57:16;98118.66;;;5.31;96.81
4167;BME280;2097;51.104;7.150;2022-11-20T12:59:57;98110.78;;;5.34;96.55
4167;BME280;2097;51.104;7.150;2022-11-20T13:02:33;98100.66;;;5.31;96.23
4167;BME280;2097;51.104;7.150;2022-11-20T13:05:16;98100.94;;;5.25;96.98
4167;BME280;2097;51.104;7.150;2022-11-20T13:07:45;97831.34;;;3.62;97.07
4167;BME280;2097;51.104;7.150;2022-11-20T13:10:22;98090.94;;;5.19;97.42
4167;BME280;2097;51.104;7.150;2022-11-20T13:12:54;98088.88;;;5.08;96.76
4167;BME280;2097;51.104;7.150;2022-11-20T13:15:35;98080.69;;;5.00;97.53
4167;BME280;2097;51.104;7.150;2022-11-20T13:18:07;97954.72;;;4.31;97.73
4167;BME280;2097;51.104;7.150;2022-11-20T13:20:36;98065.97;;;5.04;97.82
4167;BME280;2097;51.104;7.150;2022-11-20T13:23:07;98064.94;;;5.08;98.26
4167;BME280;2097;51.104;7.150;2022-11-20T13:25:36;98066.41;;;5.12;97.67
4167;BME280;2097;51.104;7.150;2022-11-20T13:28:05;97931.38;;;4.36;97.11
4167;BME280;2097;51.104;7.150;2022-11-20T13:30:53;98033.88;;;4.94;98.18
4167;BME280;2097;51.104;7.150;2022-11-20T13:33:25;98021.00;;;4.77;97.41
4167;BME280;2097;51.104;7.150;2022-11-20T13:35:58;98047.97;;;5.04;98.17
4167;BME280;2097;51.104;7.150;2022-11-20T13:38:26;98051.38;;;5.04;97.74
4167;BME280;2097;51.104;7.150;2022-11-20T13:40:57;98001.66;;;4.70;98.31
4167;BME280;2097;51.104;7.150;2022-11-20T13:43:33;98036.78;;;5.05;98.03
4167;BME280;2097;51.104;7.150;2022-11-20T13:46:03;98034.38;;;5.02;98.13
4167;BME280;2097;51.104;7.150;2022-11-20T13:48:33;97996.66;;;4.84;98.29
4167;BME280;2097;51.104;7.150;2022-11-20T13:51:15;98034.97;;;5.07;98.27